createdAt,value
2023-05-17T00:01:13.160Z,8.13
2023-05-17T00:03:41.440Z,5.78
2023-05-17T00:06:11.002Z,7.13
2023-05-17T00:08:38.831Z,5.45
2023-05-17T00:11:06.625Z,8.50
2023-05-17T00:13:34.292Z,6.85
2023-05-17T00:16:02.032Z,7.65
2023-05-17T00:18:30.035Z,6.43
2023-05-17T00:20:57.885Z,7.63
2023-05-17T00:23:27.082Z,6.18
2023-05-17T00:25:54.950Z,7.65
2023-05-17T00:28:22.937Z,5.85
2023-05-17T00:30:51.018Z,7.05
2023-05-17T00:33:18.759Z,6.38
2023-05-17T00:35:46.457Z,10.15
2023-05-17T00:38:14.106Z,7.60
2023-05-17T00:40:43.225Z,7.45
2023-05-17T00:43:11.245Z,7.75
2023-05-17T00:45:38.998Z,8.07
2023-05-17T00:48:07.157Z,9.40
2023-05-17T00:50:36.145Z,7.03
2023-05-17T00:53:04.015Z,6.32
2023-05-17T00:55:31.844Z,6.70
2023-05-17T00:58:01.422Z,8.80
2023-05-17T01:00:30.309Z,7.10
2023-05-17T01:02:58.167Z,8.73
2023-05-17T01:05:29.025Z,7.78
2023-05-17T01:07:57.112Z,8.27
2023-05-17T01:10:32.207Z,9.60
2023-05-17T01:13:10.733Z,8.93
2023-05-17T01:15:44.223Z,6.07
2023-05-17T01:18:22.899Z,7.70
2023-05-17T01:20:53.905Z,8.98
2023-05-17T01:23:31.387Z,11.35
2023-05-17T01:26:07.643Z,7.93
2023-05-17T01:28:39.735Z,12.40
2023-05-17T01:31:09.448Z,10.15
2023-05-17T01:33:38.058Z,8.90
2023-05-17T01:36:06.780Z,8.52
2023-05-17T01:38:34.527Z,8.60
2023-05-17T01:41:08.891Z,8.48
2023-05-17T01:43:44.762Z,8.70
2023-05-17T01:46:20.010Z,9.60
2023-05-17T01:48:54.512Z,10.27
2023-05-17T01:51:25.038Z,11.02
2023-05-17T01:53:58.230Z,8.27
2023-05-17T01:56:34.397Z,7.05
2023-05-17T01:59:05.652Z,10.02
2023-05-17T02:01:33.826Z,7.05
2023-05-17T02:04:01.677Z,9.30
2023-05-17T02:06:29.566Z,9.45
2023-05-17T02:08:59.942Z,10.05
2023-05-17T02:11:27.770Z,9.60
2023-05-17T02:13:55.437Z,6.75
2023-05-17T02:16:24.535Z,9.07
2023-05-17T02:18:52.300Z,7.38
2023-05-17T02:21:20.189Z,7.43
2023-05-17T02:23:47.921Z,9.43
2023-05-17T02:26:15.635Z,8.93
2023-05-17T02:28:43.410Z,8.25
2023-05-17T02:31:11.578Z,9.27
2023-05-17T02:33:40.838Z,8.75
2023-05-17T02:36:08.958Z,9.00
2023-05-17T02:38:36.667Z,7.38
2023-05-17T02:41:04.411Z,9.70
2023-05-17T02:43:32.188Z,9.83
2023-05-17T02:45:59.907Z,8.70
2023-05-17T02:48:27.583Z,11.38
2023-05-17T02:50:56.737Z,9.10
2023-05-17T02:53:24.494Z,10.95
2023-05-17T02:55:52.482Z,9.43
2023-05-17T02:58:20.211Z,8.00
2023-05-17T03:00:47.969Z,10.70
2023-05-17T03:03:16.094Z,8.75
2023-05-17T03:05:44.225Z,7.93
2023-05-17T03:08:13.361Z,9.13
2023-05-17T03:10:41.190Z,7.82
2023-05-17T03:13:08.904Z,8.00
2023-05-17T03:15:36.880Z,8.25
2023-05-17T03:18:04.870Z,7.50
2023-05-17T03:20:32.613Z,10.82
2023-05-17T03:23:00.529Z,8.27
2023-05-17T03:25:29.856Z,8.35
2023-05-17T03:27:57.658Z,10.55
2023-05-17T03:30:25.392Z,9.60
2023-05-17T03:32:54.180Z,6.18
2023-05-17T03:35:22.319Z,8.35
2023-05-17T03:37:49.971Z,7.55
2023-05-17T03:40:17.782Z,10.48
2023-05-17T03:42:47.249Z,10.07
2023-05-17T03:45:14.895Z,9.35
2023-05-17T03:47:43.256Z,9.98
2023-05-17T03:50:11.783Z,7.50
2023-05-17T03:52:41.919Z,8.90
2023-05-17T03:55:10.639Z,7.65
2023-05-17T03:57:38.555Z,9.23
2023-05-17T04:00:11.735Z,7.38
2023-05-17T04:02:39.570Z,10.90
2023-05-17T04:05:07.950Z,8.20
2023-05-17T04:07:36.042Z,8.95
2023-05-17T04:10:03.812Z,6.82
2023-05-17T04:12:31.465Z,7.20
2023-05-17T04:14:59.387Z,8.82
2023-05-17T04:17:29.127Z,10.25
2023-05-17T04:19:57.064Z,8.95
2023-05-17T04:22:24.952Z,9.13
2023-05-17T04:24:52.715Z,8.98
2023-05-17T04:27:21.930Z,8.40
2023-05-17T04:29:49.726Z,8.98
2023-05-17T04:32:18.954Z,9.30
2023-05-17T04:34:48.119Z,8.63
2023-05-17T04:37:16.287Z,10.13
2023-05-17T04:39:44.348Z,8.13
2023-05-17T04:42:12.118Z,9.07
2023-05-17T04:44:39.828Z,7.95
2023-05-17T04:47:08.171Z,9.40
2023-05-17T04:49:36.048Z,7.43
2023-05-17T04:52:06.379Z,5.90
2023-05-17T04:54:34.065Z,7.03
2023-05-17T04:57:01.951Z,9.87
2023-05-17T04:59:29.785Z,9.20
2023-05-17T05:01:57.686Z,6.85
2023-05-17T05:04:25.594Z,10.65
2023-05-17T05:06:53.429Z,6.53
2023-05-17T05:09:22.539Z,7.28
2023-05-17T05:11:50.367Z,10.60
2023-05-17T05:14:18.055Z,8.40
2023-05-17T05:16:45.937Z,6.65
2023-05-17T05:19:13.830Z,7.38
2023-05-17T05:21:41.867Z,8.80
2023-05-17T05:24:09.753Z,8.85
2023-05-17T05:26:38.860Z,7.37
2023-05-17T05:29:06.822Z,9.07
2023-05-17T05:31:34.632Z,9.70
2023-05-17T05:34:02.527Z,9.50
2023-05-17T05:36:30.955Z,8.77
2023-05-17T05:39:01.240Z,8.40
2023-05-17T05:41:29.099Z,7.97
2023-05-17T05:44:00.403Z,9.50
2023-05-17T05:46:28.173Z,8.65
2023-05-17T05:48:55.879Z,10.85
2023-05-17T05:51:23.769Z,10.32
2023-05-17T05:53:51.492Z,10.48
2023-05-17T05:56:19.189Z,8.88
2023-05-17T05:58:47.058Z,8.57
2023-05-17T06:01:16.136Z,8.40
2023-05-17T06:03:43.813Z,9.27
2023-05-17T06:06:11.788Z,9.77
2023-05-17T06:08:39.541Z,10.05
2023-05-17T06:11:07.596Z,10.85
2023-05-17T06:13:35.366Z,10.88
2023-05-17T06:16:03.060Z,10.27
2023-05-17T06:18:32.212Z,9.63
2023-05-17T06:21:00.474Z,9.73
2023-05-17T06:23:28.264Z,9.25
2023-05-17T06:25:56.013Z,7.88
2023-05-17T06:28:23.855Z,10.50
2023-05-17T06:30:51.577Z,9.63
2023-05-17T06:33:19.518Z,13.10
2023-05-17T06:35:56.567Z,10.88
2023-05-17T06:38:25.864Z,8.93
2023-05-17T06:40:54.893Z,9.75
2023-05-17T06:43:23.007Z,10.38
2023-05-17T06:45:50.858Z,12.23
2023-05-17T06:48:18.883Z,9.63
2023-05-17T06:50:48.124Z,9.67
2023-05-17T06:53:16.049Z,10.40
2023-05-17T06:55:43.947Z,9.65
2023-05-17T06:58:11.729Z,8.18
2023-05-17T07:00:39.539Z,11.02
2023-05-17T07:03:07.327Z,10.07
2023-05-17T07:05:36.226Z,9.73
2023-05-17T07:08:05.942Z,11.10
2023-05-17T07:10:33.735Z,8.33
2023-05-17T07:13:01.555Z,10.43
2023-05-17T07:15:30.091Z,11.23
2023-05-17T07:17:59.308Z,11.53
2023-05-17T07:20:27.147Z,8.93
2023-05-17T07:22:54.909Z,9.13
2023-05-17T07:25:23.939Z,13.20
2023-05-17T07:27:51.680Z,8.87
2023-05-17T07:30:19.398Z,9.05
2023-05-17T07:32:47.204Z,10.85
2023-05-17T07:35:15.393Z,8.63
2023-05-17T07:37:43.580Z,9.52
2023-05-17T07:40:12.207Z,8.90
2023-05-17T07:42:41.503Z,11.05
2023-05-17T07:45:10.728Z,11.85
2023-05-17T07:47:38.752Z,9.90
2023-05-17T07:50:07.952Z,8.73
2023-05-17T07:52:35.783Z,9.57
2023-05-17T07:55:04.058Z,11.65
2023-05-17T07:57:32.130Z,8.93
2023-05-17T08:00:01.311Z,10.48
2023-05-17T08:02:32.071Z,8.63
2023-05-17T08:05:00.119Z,7.93
2023-05-17T08:07:28.021Z,10.20
2023-05-17T08:09:56.694Z,11.93
2023-05-17T08:12:24.372Z,8.60
2023-05-17T08:14:52.169Z,7.68
2023-05-17T08:17:22.347Z,7.88
2023-05-17T08:19:50.382Z,10.93
2023-05-17T08:22:18.311Z,9.63
2023-05-17T08:24:46.191Z,11.15
2023-05-17T08:27:13.940Z,9.82
2023-05-17T08:29:41.766Z,8.30
2023-05-17T08:32:09.603Z,10.93
2023-05-17T08:34:39.171Z,10.43
2023-05-17T08:37:07.068Z,10.68
2023-05-17T08:39:34.962Z,9.93
2023-05-17T08:42:03.201Z,9.95
2023-05-17T08:44:31.074Z,9.02
2023-05-17T08:47:00.516Z,10.20
2023-05-17T08:49:30.135Z,12.53
2023-05-17T08:52:01.663Z,8.52
2023-05-17T08:54:29.918Z,10.57
2023-05-17T08:57:02.154Z,9.90
2023-05-17T08:59:34.041Z,11.07
2023-05-17T09:02:02.778Z,11.10
2023-05-17T09:04:31.192Z,10.32
2023-05-17T09:07:00.316Z,9.80
2023-05-17T09:09:28.412Z,8.18
2023-05-17T09:11:56.438Z,10.85
2023-05-17T09:14:24.170Z,9.32
2023-05-17T09:16:58.350Z,7.40
2023-05-17T09:19:26.230Z,9.93
2023-05-17T09:21:55.272Z,7.50
2023-05-17T09:24:31.010Z,9.63
2023-05-17T09:27:03.007Z,8.82
2023-05-17T09:29:32.506Z,8.48
2023-05-17T09:32:13.922Z,8.68
2023-05-17T09:34:42.807Z,9.27
2023-05-17T09:37:19.562Z,9.98
2023-05-17T09:39:49.438Z,8.88
2023-05-17T09:42:18.561Z,9.80
2023-05-17T09:44:48.240Z,6.78
2023-05-17T09:47:23.893Z,9.13
2023-05-17T09:49:52.043Z,8.48
2023-05-17T09:52:20.938Z,8.77
2023-05-17T09:54:54.739Z,8.35
2023-05-17T09:57:23.073Z,7.70
2023-05-17T09:59:51.468Z,8.90
2023-05-17T10:02:25.767Z,9.90
2023-05-17T10:04:54.082Z,10.30
2023-05-17T10:07:22.693Z,6.22
2023-05-17T10:09:51.345Z,10.70
2023-05-17T10:12:24.332Z,8.27
2023-05-17T10:14:55.867Z,8.17
2023-05-17T10:17:24.445Z,7.90
2023-05-17T10:19:52.949Z,6.68
2023-05-17T10:22:23.911Z,6.63
2023-05-17T10:24:52.732Z,6.57
2023-05-17T10:27:22.582Z,7.72
2023-05-17T10:29:51.470Z,6.68
2023-05-17T10:32:22.924Z,7.60
2023-05-17T10:35:06.085Z,7.07
2023-05-17T10:37:37.981Z,7.20
2023-05-17T10:40:06.783Z,7.80
2023-05-17T10:42:36.199Z,7.60
2023-05-17T10:45:04.595Z,9.40
2023-05-17T10:47:35.568Z,7.53
2023-05-17T10:50:10.158Z,8.87
2023-05-17T10:52:40.149Z,8.57
2023-05-17T10:55:09.077Z,7.43
2023-05-17T10:57:50.525Z,6.67
2023-05-17T11:00:22.001Z,9.77
2023-05-17T11:02:50.929Z,5.93
2023-05-17T11:05:25.831Z,6.43
2023-05-17T11:07:54.205Z,7.30
2023-05-17T11:10:22.652Z,6.25
2023-05-17T11:12:57.802Z,7.78
2023-05-17T11:15:27.145Z,6.85
2023-05-17T11:17:56.259Z,8.85
2023-05-17T11:20:36.873Z,9.63
2023-05-17T11:23:07.063Z,6.70
2023-05-17T11:25:36.940Z,6.45
2023-05-17T11:28:11.179Z,6.37
2023-05-17T11:30:43.496Z,7.27
2023-05-17T11:33:24.963Z,8.20
2023-05-17T11:35:57.650Z,6.70
2023-05-17T11:38:31.706Z,8.90
2023-05-17T11:41:01.313Z,8.77
2023-05-17T11:43:31.102Z,8.73
2023-05-17T11:46:01.501Z,7.10
2023-05-17T11:48:31.828Z,7.27
2023-05-17T11:51:02.151Z,9.32
2023-05-17T11:53:32.323Z,6.97
2023-05-17T11:56:04.093Z,7.80
2023-05-17T11:58:33.834Z,10.97
2023-05-17T12:01:01.783Z,7.18
2023-05-17T12:03:30.893Z,7.55
2023-05-17T12:06:07.753Z,8.73
2023-05-17T12:08:38.060Z,7.07
2023-05-17T12:11:07.412Z,8.10
2023-05-17T12:13:37.052Z,7.18
2023-05-17T12:16:08.745Z,8.07
2023-05-17T12:18:38.429Z,9.43
2023-05-17T12:21:07.394Z,9.20
2023-05-17T12:23:36.601Z,6.90
2023-05-17T12:26:09.374Z,6.68
2023-05-17T12:28:40.140Z,7.68
2023-05-17T12:31:11.087Z,8.05
2023-05-17T12:33:41.700Z,9.05
2023-05-17T12:36:10.996Z,9.95
2023-05-17T12:38:41.058Z,7.78
2023-05-17T12:41:11.746Z,7.55
2023-05-17T12:43:41.609Z,7.75
2023-05-17T12:46:11.572Z,9.18
2023-05-17T12:48:43.924Z,9.20
2023-05-17T12:51:13.824Z,8.93
2023-05-17T12:53:43.867Z,7.50
2023-05-17T12:56:17.960Z,9.50
2023-05-17T12:59:05.415Z,7.72
2023-05-17T13:01:37.527Z,8.57
2023-05-17T13:04:05.848Z,8.13
2023-05-17T13:06:45.766Z,8.43
2023-05-17T13:09:14.309Z,7.28
2023-05-17T13:11:42.663Z,7.85
2023-05-17T13:14:13.192Z,8.60
2023-05-17T13:16:41.366Z,8.20
2023-05-17T13:19:15.956Z,6.63
2023-05-17T13:21:43.683Z,9.27
2023-05-17T13:24:11.853Z,8.27
2023-05-17T13:26:39.527Z,12.27
2023-05-17T13:29:07.291Z,7.68
2023-05-17T13:31:36.364Z,8.98
2023-05-17T13:34:04.204Z,6.07
2023-05-17T13:36:32.004Z,7.50
2023-05-17T13:39:01.881Z,7.70
2023-05-17T13:41:29.675Z,7.10
2023-05-17T13:43:57.694Z,8.02
2023-05-17T13:46:25.526Z,7.77
2023-05-17T13:48:54.901Z,7.97
2023-05-17T13:51:22.634Z,7.43
2023-05-17T13:53:50.584Z,8.10
2023-05-17T13:56:18.693Z,7.17
2023-05-17T13:58:46.470Z,7.53
2023-05-17T14:01:14.652Z,8.57
2023-05-17T14:03:42.504Z,6.57
2023-05-17T14:06:11.710Z,8.50
2023-05-17T14:08:40.860Z,7.80
2023-05-17T14:11:08.671Z,7.65
2023-05-17T14:13:36.715Z,7.22
2023-05-17T14:16:04.406Z,8.45
2023-05-17T14:18:32.606Z,10.85
2023-05-17T14:21:01.151Z,8.25
2023-05-17T14:23:30.550Z,11.02
2023-05-17T14:25:58.736Z,8.30
2023-05-17T14:28:26.720Z,9.05
2023-05-17T14:30:54.555Z,8.98
2023-05-17T14:33:22.870Z,7.68
2023-05-17T14:35:50.642Z,5.65
2023-05-17T14:38:20.371Z,7.85
2023-05-17T14:40:49.748Z,7.53
2023-05-17T14:43:17.625Z,8.18
2023-05-17T14:45:45.325Z,8.13
2023-05-17T14:48:13.207Z,8.40
2023-05-17T14:50:41.029Z,8.57
2023-05-17T14:53:08.871Z,9.13
2023-05-17T14:55:36.913Z,6.85
2023-05-17T14:58:06.426Z,6.57
2023-05-17T15:00:34.747Z,9.63
2023-05-17T15:03:03.201Z,7.93
2023-05-17T15:05:31.259Z,7.50
2023-05-17T15:07:59.186Z,6.70
2023-05-17T15:10:26.946Z,6.90
2023-05-17T15:12:54.680Z,7.05
2023-05-17T15:15:23.755Z,7.03
2023-05-17T15:17:52.025Z,7.45
2023-05-17T15:20:20.576Z,6.53
2023-05-17T15:22:48.576Z,7.40
2023-05-17T15:25:16.850Z,8.50
2023-05-17T15:27:44.671Z,5.78
2023-05-17T15:30:14.205Z,6.50
2023-05-17T15:32:43.232Z,7.07
2023-05-17T15:35:11.287Z,8.45
2023-05-17T15:37:39.057Z,6.55
2023-05-17T15:40:09.595Z,7.07
2023-05-17T15:42:37.640Z,8.18
2023-05-17T15:45:06.338Z,8.35
2023-05-17T15:47:43.181Z,8.00
2023-05-17T15:50:13.124Z,9.27
2023-05-17T15:52:43.100Z,5.68
2023-05-17T15:55:12.350Z,7.03
2023-05-17T15:57:40.616Z,6.13
2023-05-17T16:00:09.658Z,9.30
2023-05-17T16:02:37.904Z,7.47
2023-05-17T16:05:06.485Z,7.60
2023-05-17T16:07:35.541Z,8.15
2023-05-17T16:10:05.526Z,6.40
2023-05-17T16:12:33.296Z,7.43
2023-05-17T16:15:00.950Z,6.03
2023-05-17T16:17:28.743Z,7.22
2023-05-17T16:19:56.543Z,6.15
2023-05-17T16:22:24.273Z,6.33
2023-05-17T16:24:55.231Z,6.53
2023-05-17T16:27:23.090Z,8.35
2023-05-17T16:29:50.846Z,8.43
2023-05-17T16:32:18.819Z,6.95
2023-05-17T16:34:46.484Z,6.18
2023-05-17T16:37:14.303Z,8.88
2023-05-17T16:39:42.265Z,8.27
2023-05-17T16:42:11.560Z,7.37
2023-05-17T16:44:39.300Z,6.68
2023-05-17T16:47:07.240Z,5.90
2023-05-17T16:49:36.576Z,6.13
2023-05-17T16:52:04.829Z,5.82
2023-05-17T16:54:33.693Z,6.88
2023-05-17T16:57:02.382Z,6.85
2023-05-17T16:59:32.074Z,5.97
2023-05-17T17:01:59.971Z,8.57
2023-05-17T17:04:27.773Z,6.18
2023-05-17T17:06:55.437Z,8.00
2023-05-17T17:09:23.177Z,6.67
2023-05-17T17:11:51.080Z,6.70
2023-05-17T17:14:18.844Z,6.57
2023-05-17T17:16:47.978Z,8.23
2023-05-17T17:19:15.996Z,5.95
2023-05-17T17:21:43.753Z,6.78
2023-05-17T17:24:11.660Z,6.88
2023-05-17T17:26:39.564Z,9.30
2023-05-17T17:29:08.143Z,7.07
2023-05-17T17:31:35.825Z,8.00
2023-05-17T17:34:05.348Z,7.65
2023-05-17T17:36:33.095Z,7.00
2023-05-17T17:39:00.829Z,8.82
2023-05-17T17:41:28.619Z,6.55
2023-05-17T17:43:56.484Z,7.72
2023-05-17T17:46:25.521Z,6.53
2023-05-17T17:48:54.473Z,7.82
2023-05-17T17:51:25.819Z,7.82
2023-05-17T17:53:54.070Z,8.35
2023-05-17T17:56:23.809Z,10.02
2023-05-17T17:58:53.568Z,9.47
2023-05-17T18:01:21.571Z,10.00
2023-05-17T18:03:49.413Z,7.93
2023-05-17T18:06:17.184Z,8.52
2023-05-17T18:08:46.914Z,7.13
2023-05-17T18:11:14.614Z,10.07
2023-05-17T18:13:42.310Z,9.60
2023-05-17T18:16:10.133Z,10.35
2023-05-17T18:18:40.618Z,9.87
2023-05-17T18:21:08.823Z,9.13
2023-05-17T18:23:36.665Z,10.40
2023-05-17T18:26:06.254Z,10.20
2023-05-17T18:28:42.276Z,8.80
2023-05-17T18:31:10.622Z,8.85
2023-05-17T18:33:38.639Z,12.18
2023-05-17T18:36:07.520Z,11.25
2023-05-17T18:38:35.641Z,9.20
2023-05-17T18:41:05.147Z,12.67
2023-05-17T18:43:33.382Z,8.80
2023-05-17T18:46:01.561Z,11.52
2023-05-17T18:48:29.851Z,9.02
2023-05-17T18:50:57.818Z,7.95
2023-05-17T18:53:26.403Z,8.15
2023-05-17T18:55:54.268Z,12.13
2023-05-17T18:58:23.596Z,13.27
2023-05-17T19:00:51.563Z,10.15
2023-05-17T19:03:19.417Z,61.40
2023-05-17T19:05:47.252Z,74.22
2023-05-17T19:08:15.215Z,63.90
2023-05-17T19:10:43.206Z,26.45
2023-05-17T19:13:11.352Z,43.70
2023-05-17T19:15:41.557Z,18.23
2023-05-17T19:18:09.837Z,15.50
2023-05-17T19:20:38.030Z,39.35
2023-05-17T19:23:06.793Z,74.43
2023-05-17T19:25:34.760Z,17.65
2023-05-17T19:28:02.657Z,15.50
2023-05-17T19:30:32.754Z,19.30
2023-05-17T19:33:02.546Z,11.77
2023-05-17T19:35:30.643Z,10.65
2023-05-17T19:37:58.658Z,15.45
2023-05-17T19:40:26.824Z,16.00
2023-05-17T19:42:54.700Z,9.52
2023-05-17T19:45:22.759Z,9.70
2023-05-17T19:47:50.688Z,13.38
2023-05-17T19:50:20.050Z,10.30
2023-05-17T19:52:48.377Z,12.15
2023-05-17T19:55:21.879Z,11.63
2023-05-17T19:57:49.917Z,8.65
2023-05-17T20:00:18.733Z,7.90
2023-05-17T20:02:47.391Z,8.30
2023-05-17T20:05:17.147Z,9.80
2023-05-17T20:07:46.308Z,12.45
2023-05-17T20:10:14.402Z,9.07
2023-05-17T20:12:42.285Z,11.05
2023-05-17T20:15:11.266Z,10.52
2023-05-17T20:17:39.116Z,9.23
2023-05-17T20:20:08.075Z,10.77
2023-05-17T20:22:37.304Z,9.20
2023-05-17T20:25:07.302Z,9.43
2023-05-17T20:27:35.163Z,10.00
2023-05-17T20:30:02.945Z,9.88
2023-05-17T20:32:30.915Z,11.80
2023-05-17T20:34:58.789Z,11.80
2023-05-17T20:37:27.229Z,10.55
2023-05-17T20:39:56.655Z,11.20
2023-05-17T20:42:26.306Z,9.18
2023-05-17T20:44:54.916Z,11.38
2023-05-17T20:47:22.964Z,9.10
2023-05-17T20:49:51.002Z,10.23
2023-05-17T20:52:31.413Z,11.45
2023-05-17T20:55:07.603Z,12.43
2023-05-17T20:57:36.932Z,11.52
2023-05-17T21:00:06.430Z,10.57
2023-05-17T21:02:34.464Z,9.75
2023-05-17T21:05:03.331Z,9.90
2023-05-17T21:07:31.329Z,10.63
2023-05-17T21:09:59.430Z,9.57
2023-05-17T21:12:27.514Z,12.63
2023-05-17T21:15:14.529Z,8.27
2023-05-17T21:17:44.234Z,7.60
2023-05-17T21:20:13.228Z,10.30
2023-05-17T21:22:41.233Z,11.57
2023-05-17T21:25:10.716Z,11.10
2023-05-17T21:27:38.612Z,10.00
2023-05-17T21:30:10.930Z,10.70
2023-05-17T21:32:39.306Z,8.77
2023-05-17T21:35:07.800Z,10.50
2023-05-17T21:37:37.077Z,13.30
2023-05-17T21:40:05.312Z,9.50
2023-05-17T21:42:33.712Z,8.90
2023-05-17T21:45:01.700Z,9.68
2023-05-17T21:47:31.013Z,10.90
2023-05-17T21:49:59.124Z,8.45
2023-05-17T21:52:27.095Z,12.32
2023-05-17T21:54:54.933Z,10.35
2023-05-17T21:57:22.819Z,11.77
2023-05-17T21:59:51.978Z,12.57
2023-05-17T22:02:20.185Z,8.77
2023-05-17T22:04:49.478Z,10.43
2023-05-17T22:07:17.362Z,8.93
2023-05-17T22:09:46.631Z,10.80
2023-05-17T22:12:14.735Z,11.70
2023-05-17T22:14:44.611Z,9.07
2023-05-17T22:17:13.021Z,10.50
2023-05-17T22:19:41.612Z,9.75
2023-05-17T22:22:10.807Z,10.48
2023-05-17T22:24:38.989Z,9.25
2023-05-17T22:27:07.244Z,8.83
2023-05-17T22:29:35.343Z,7.90
2023-05-17T22:32:03.265Z,10.45
2023-05-17T22:34:31.889Z,7.72
2023-05-17T22:36:59.939Z,10.43
2023-05-17T22:39:29.390Z,11.35
2023-05-17T22:41:57.462Z,8.15
2023-05-17T22:44:26.307Z,10.27
2023-05-17T22:46:57.644Z,8.43
2023-05-17T22:49:25.945Z,8.63
2023-05-17T22:51:54.511Z,9.25
2023-05-17T22:54:22.258Z,12.40
2023-05-17T22:56:51.661Z,9.60
2023-05-17T22:59:19.511Z,13.23
2023-05-17T23:01:47.378Z,9.80
2023-05-17T23:04:15.446Z,8.82
2023-05-17T23:06:43.351Z,11.13
2023-05-17T23:09:11.556Z,10.90
2023-05-17T23:11:41.380Z,11.10
2023-05-17T23:14:11.381Z,9.48
2023-05-17T23:16:39.471Z,9.15
2023-05-17T23:19:07.451Z,10.27
2023-05-17T23:21:36.320Z,10.30
2023-05-17T23:24:04.019Z,12.80
2023-05-17T23:26:33.954Z,8.05
2023-05-17T23:29:03.561Z,12.15
2023-05-17T23:31:33.906Z,10.98
2023-05-17T23:34:01.832Z,11.07
2023-05-17T23:36:29.523Z,8.47
2023-05-17T23:38:57.247Z,10.25
2023-05-17T23:41:25.517Z,10.27
2023-05-17T23:43:53.244Z,9.52
2023-05-17T23:46:21.986Z,13.57
2023-05-17T23:48:51.242Z,10.67
2023-05-17T23:51:20.361Z,8.65
2023-05-17T23:53:49.089Z,12.23
2023-05-17T23:56:17.720Z,9.73
2023-05-17T23:58:45.634Z,12.30
